createdAt,value
2023-11-30T00:01:28.056Z,97.30
2023-11-30T00:03:54.997Z,97.25
2023-11-30T00:06:21.821Z,97.23
2023-11-30T00:08:48.595Z,97.20
2023-11-30T00:11:15.337Z,97.16
2023-11-30T00:13:42.061Z,97.08
2023-11-30T00:16:09.045Z,97.01
2023-11-30T00:18:35.876Z,96.98
2023-11-30T00:21:03.119Z,97.02
2023-11-30T00:23:30.293Z,97.11
2023-11-30T00:25:57.101Z,97.08
2023-11-30T00:28:24.082Z,97.09
2023-11-30T00:30:50.977Z,97.19
2023-11-30T00:33:17.832Z,97.31
2023-11-30T00:35:44.556Z,97.47
2023-11-30T00:38:11.370Z,97.62
2023-11-30T00:40:40.923Z,97.67
2023-11-30T00:43:07.945Z,97.65
2023-11-30T00:45:34.897Z,97.58
2023-11-30T00:48:01.761Z,97.63
2023-11-30T00:50:28.827Z,97.56
2023-11-30T00:52:55.701Z,97.47
2023-11-30T00:55:22.475Z,97.46
2023-11-30T01:01:40.481Z,97.30
2023-11-30T01:04:07.534Z,97.15
2023-11-30T01:06:34.373Z,97.24
2023-11-30T01:09:01.182Z,97.22
2023-11-30T01:11:28.027Z,97.32
2023-11-30T01:13:54.774Z,97.20
2023-11-30T01:16:21.534Z,97.14
2023-11-30T01:18:48.387Z,97.21
2023-11-30T01:21:15.235Z,97.25
2023-11-30T01:23:41.997Z,97.30
2023-11-30T01:26:08.754Z,97.24
2023-11-30T01:28:35.770Z,97.12
2023-11-30T01:31:02.541Z,97.12
2023-11-30T01:33:29.438Z,97.07
2023-11-30T01:35:56.281Z,97.01
2023-11-30T01:38:23.017Z,97.28
2023-11-30T01:40:49.754Z,97.38
2023-11-30T01:43:18.780Z,97.48
2023-11-30T01:45:45.614Z,97.30
2023-11-30T01:48:12.933Z,96.99
2023-11-30T01:50:40.000Z,96.76
2023-11-30T01:53:07.474Z,96.80
2023-11-30T01:55:34.338Z,96.86
2023-11-30T01:58:01.664Z,96.97
2023-11-30T02:00:31.592Z,96.85
2023-11-30T02:03:02.646Z,96.73
2023-11-30T02:05:29.433Z,96.78
2023-11-30T02:07:56.192Z,96.73
2023-11-30T02:10:24.490Z,96.82
2023-11-30T02:12:51.295Z,96.94
2023-11-30T02:15:18.153Z,96.93
2023-11-30T02:17:46.400Z,96.98
2023-11-30T02:20:13.199Z,97.05
2023-11-30T02:22:40.063Z,97.05
2023-11-30T02:25:07.105Z,96.87
2023-11-30T02:27:34.009Z,96.82
2023-11-30T02:30:00.839Z,96.73
2023-11-30T02:32:27.710Z,96.67
2023-11-30T02:34:54.418Z,96.80
2023-11-30T02:37:21.206Z,96.73
2023-11-30T02:39:47.976Z,96.65
2023-11-30T02:42:15.113Z,96.67
2023-11-30T02:44:42.074Z,96.72
2023-11-30T02:47:08.828Z,96.72
2023-11-30T02:49:35.599Z,96.83
2023-11-30T02:52:02.579Z,96.89
2023-11-30T02:54:29.490Z,97.15
2023-11-30T02:56:56.289Z,97.22
2023-11-30T02:59:24.324Z,97.27
2023-11-30T03:01:51.329Z,97.40
2023-11-30T03:04:18.310Z,97.40
2023-11-30T03:06:50.857Z,97.35
2023-11-30T03:09:17.873Z,97.24
2023-11-30T03:11:44.731Z,97.23
2023-11-30T03:14:11.468Z,97.10
2023-11-30T03:16:38.220Z,96.94
2023-11-30T03:19:14.458Z,96.93
2023-11-30T03:21:43.942Z,96.75
2023-11-30T03:24:10.919Z,96.65
2023-11-30T03:26:37.947Z,96.54
2023-11-30T03:29:04.721Z,96.45
2023-11-30T03:31:31.660Z,96.43
2023-11-30T03:33:58.499Z,96.54
2023-11-30T03:36:25.651Z,96.53
2023-11-30T03:38:55.354Z,96.61
2023-11-30T03:41:22.932Z,96.56
2023-11-30T03:43:50.193Z,96.54
2023-11-30T03:46:17.006Z,96.56
2023-11-30T03:48:43.931Z,96.49
2023-11-30T03:51:12.148Z,96.36
2023-11-30T03:53:39.021Z,96.21
2023-11-30T03:56:06.179Z,96.14
2023-11-30T03:58:33.093Z,95.96
2023-11-30T04:00:59.835Z,95.75
2023-11-30T04:03:26.703Z,95.71
2023-11-30T04:05:53.680Z,95.75
2023-11-30T04:08:20.503Z,95.89
2023-11-30T04:10:47.360Z,95.80
2023-11-30T04:13:14.140Z,95.87
2023-11-30T04:15:40.869Z,95.76
2023-11-30T04:18:07.782Z,95.95
2023-11-30T04:20:34.728Z,95.87
2023-11-30T04:23:01.803Z,95.69
2023-11-30T04:25:28.822Z,95.54
2023-11-30T04:27:55.515Z,95.52
2023-11-30T04:30:22.314Z,95.32
2023-11-30T04:32:49.067Z,95.23
2023-11-30T04:35:15.964Z,95.20
2023-11-30T04:37:42.755Z,95.17
2023-11-30T04:40:09.878Z,95.17
2023-11-30T04:42:36.616Z,95.09
2023-11-30T04:45:04.122Z,95.15
2023-11-30T04:47:31.061Z,95.10
2023-11-30T04:49:57.771Z,95.10
2023-11-30T04:52:25.199Z,95.33
2023-11-30T04:54:52.238Z,95.11
2023-11-30T04:57:19.087Z,95.30
2023-11-30T04:59:46.652Z,95.23
2023-11-30T05:02:13.615Z,95.40
2023-11-30T05:04:40.493Z,95.48
2023-11-30T05:07:07.350Z,95.44
2023-11-30T05:09:34.048Z,95.51
2023-11-30T05:12:01.093Z,95.49
2023-11-30T05:14:27.936Z,95.49
2023-11-30T05:16:54.797Z,95.44
2023-11-30T05:19:21.556Z,95.43
2023-11-30T05:21:48.318Z,95.59
2023-11-30T05:24:15.188Z,95.56
2023-11-30T05:26:43.358Z,95.51
2023-11-30T05:29:10.053Z,95.35
2023-11-30T05:31:36.797Z,95.38
2023-11-30T05:34:03.848Z,95.37
2023-11-30T05:36:30.992Z,95.43
2023-11-30T05:38:57.742Z,95.18
2023-11-30T05:41:24.463Z,95.21
2023-11-30T05:43:52.072Z,95.22
2023-11-30T05:46:21.805Z,95.00
2023-11-30T05:48:48.637Z,95.09
2023-11-30T05:51:15.482Z,95.14
2023-11-30T05:53:42.423Z,95.23
2023-11-30T05:56:09.532Z,95.30
2023-11-30T05:58:37.436Z,95.27
2023-11-30T06:01:04.285Z,95.27
2023-11-30T06:03:31.180Z,95.25
2023-11-30T06:05:58.052Z,95.22
2023-11-30T06:08:26.078Z,95.11
2023-11-30T06:10:53.035Z,95.17
2023-11-30T06:13:19.971Z,94.98
2023-11-30T06:15:46.918Z,95.02
2023-11-30T06:18:13.792Z,95.12
2023-11-30T06:20:40.548Z,95.15
2023-11-30T06:23:07.416Z,95.07
2023-11-30T06:25:34.215Z,95.09
2023-11-30T06:28:01.120Z,95.14
2023-11-30T06:30:28.230Z,94.97
2023-11-30T06:32:55.058Z,94.92
2023-11-30T06:35:22.201Z,95.01
2023-11-30T06:37:49.049Z,95.02
2023-11-30T06:40:15.949Z,95.01
2023-11-30T06:42:42.789Z,95.07
2023-11-30T06:45:10.013Z,95.06
2023-11-30T06:47:36.986Z,94.83
2023-11-30T06:50:04.824Z,95.10
2023-11-30T06:52:31.651Z,95.10
2023-11-30T06:54:58.537Z,95.26
2023-11-30T06:57:28.132Z,95.12
2023-11-30T06:59:54.929Z,94.99
2023-11-30T07:02:24.520Z,94.92
2023-11-30T07:04:51.410Z,94.93
2023-11-30T07:07:27.932Z,94.82
2023-11-30T07:10:01.223Z,95.01
2023-11-30T07:12:28.151Z,94.99
2023-11-30T07:14:55.273Z,95.04
2023-11-30T07:17:25.322Z,95.06
2023-11-30T07:19:53.874Z,94.85
2023-11-30T07:22:22.067Z,94.96
2023-11-30T07:24:53.006Z,95.07
2023-11-30T07:27:20.526Z,94.99
2023-11-30T07:33:40.557Z,94.76
2023-11-30T07:36:11.122Z,94.65
2023-11-30T07:38:38.824Z,94.91
2023-11-30T07:41:09.344Z,94.88
2023-11-30T07:43:39.177Z,94.96
2023-11-30T07:46:07.268Z,94.99
2023-11-30T07:48:34.202Z,95.01
2023-11-30T07:51:01.206Z,95.07
2023-11-30T07:53:27.998Z,94.92
2023-11-30T07:55:58.462Z,94.89
2023-11-30T07:58:25.480Z,94.75
2023-11-30T08:00:52.878Z,94.68
2023-11-30T08:03:19.990Z,94.71
2023-11-30T08:05:47.097Z,94.38
2023-11-30T08:08:13.871Z,94.36
2023-11-30T08:10:41.253Z,94.40
2023-11-30T08:13:08.385Z,94.41
2023-11-30T08:15:35.324Z,94.26
2023-11-30T08:18:02.385Z,93.95
2023-11-30T08:20:29.317Z,93.96
2023-11-30T08:22:56.486Z,93.92
2023-11-30T08:25:23.347Z,94.08
2023-11-30T08:27:54.568Z,93.86
2023-11-30T08:30:22.193Z,94.04
2023-11-30T08:32:49.543Z,93.71
2023-11-30T08:35:16.339Z,93.80
2023-11-30T08:37:43.405Z,93.92
2023-11-30T08:40:11.949Z,93.65
2023-11-30T08:42:38.925Z,93.68
2023-11-30T08:45:07.173Z,93.52
2023-11-30T08:47:34.058Z,93.29
2023-11-30T08:50:00.744Z,92.91
2023-11-30T08:52:27.493Z,92.75
2023-11-30T08:54:54.384Z,92.63
2023-11-30T08:57:21.455Z,92.61
2023-11-30T08:59:50.623Z,92.41
2023-11-30T09:02:17.618Z,92.30
2023-11-30T09:04:44.628Z,92.35
2023-11-30T09:07:12.107Z,92.48
2023-11-30T09:09:40.995Z,92.44
2023-11-30T09:12:08.845Z,92.33
2023-11-30T09:14:35.679Z,92.26
2023-11-30T09:17:05.044Z,91.96
2023-11-30T09:19:32.080Z,92.03
2023-11-30T09:21:58.861Z,91.90
2023-11-30T09:24:25.726Z,91.90
2023-11-30T09:26:54.482Z,92.06
2023-11-30T09:29:21.557Z,91.88
2023-11-30T09:31:48.618Z,91.61
2023-11-30T09:34:15.519Z,91.52
2023-11-30T09:36:42.834Z,91.60
2023-11-30T09:39:09.837Z,91.56
2023-11-30T09:41:39.990Z,91.52
2023-11-30T09:44:07.814Z,91.36
2023-11-30T09:46:34.881Z,91.25
2023-11-30T09:49:01.953Z,90.94
2023-11-30T09:51:30.287Z,91.12
2023-11-30T09:54:00.305Z,91.26
2023-11-30T09:56:28.176Z,90.86
2023-11-30T09:58:55.270Z,91.15
2023-11-30T10:01:23.722Z,90.64
2023-11-30T10:03:50.942Z,90.80
2023-11-30T10:06:18.098Z,90.27
2023-11-30T10:08:45.316Z,90.07
2023-11-30T10:11:13.414Z,89.09
2023-11-30T10:13:40.360Z,89.39
2023-11-30T10:16:07.960Z,89.79
2023-11-30T10:18:35.766Z,89.06
2023-11-30T10:21:03.412Z,89.14
2023-11-30T10:23:31.414Z,88.96
2023-11-30T10:25:58.363Z,88.96
2023-11-30T10:28:25.393Z,88.84
2023-11-30T10:30:56.745Z,88.95
2023-11-30T10:33:25.492Z,88.37
2023-11-30T10:35:53.719Z,88.20
2023-11-30T10:38:28.407Z,88.43
2023-11-30T10:41:28.586Z,88.06
2023-11-30T10:43:59.837Z,87.98
2023-11-30T10:46:28.398Z,87.78
2023-11-30T10:48:56.630Z,87.76
2023-11-30T10:51:25.035Z,87.91
2023-11-30T10:54:28.566Z,86.47
2023-11-30T10:56:56.147Z,86.01
2023-11-30T10:59:23.519Z,86.69
2023-11-30T11:01:52.932Z,86.70
2023-11-30T11:04:21.918Z,86.21
2023-11-30T11:06:49.559Z,85.37
2023-11-30T11:09:18.938Z,83.63
2023-11-30T11:11:45.753Z,83.85
2023-11-30T11:14:31.889Z,85.07
2023-11-30T11:17:07.256Z,84.40
2023-11-30T11:19:34.268Z,84.79
2023-11-30T11:22:01.101Z,85.05
2023-11-30T11:24:28.617Z,83.83
2023-11-30T11:26:59.725Z,83.49
2023-11-30T11:29:31.114Z,83.89
2023-11-30T11:32:05.920Z,84.24
2023-11-30T11:34:33.658Z,84.84
2023-11-30T11:37:00.497Z,84.57
2023-11-30T11:39:27.334Z,84.55
2023-11-30T11:41:54.123Z,84.54
2023-11-30T11:44:24.080Z,85.22
2023-11-30T11:46:51.700Z,84.17
2023-11-30T11:49:18.656Z,85.19
2023-11-30T11:51:46.853Z,85.86
2023-11-30T11:54:22.121Z,85.70
2023-11-30T11:56:53.797Z,84.37
2023-11-30T11:59:30.560Z,84.09
2023-11-30T12:01:59.287Z,84.13
2023-11-30T12:04:31.154Z,84.40
2023-11-30T12:07:00.689Z,84.55
2023-11-30T12:09:27.764Z,85.24
2023-11-30T12:11:57.647Z,86.13
2023-11-30T12:14:24.434Z,85.72
2023-11-30T12:16:51.401Z,85.30
2023-11-30T12:19:21.109Z,85.94
2023-11-30T12:21:48.550Z,85.25
2023-11-30T12:24:16.099Z,85.28
2023-11-30T12:26:43.224Z,85.92
2023-11-30T12:29:11.556Z,84.63
2023-11-30T12:31:38.511Z,84.40
2023-11-30T12:34:05.744Z,83.69
2023-11-30T12:36:32.637Z,83.93
2023-11-30T12:38:59.577Z,84.55
2023-11-30T12:41:26.377Z,83.96
2023-11-30T12:43:53.203Z,84.59
2023-11-30T12:46:20.156Z,84.33
2023-11-30T12:48:47.542Z,84.21
2023-11-30T12:51:14.465Z,83.73
2023-11-30T12:53:41.225Z,83.44
2023-11-30T12:56:08.620Z,83.57
2023-11-30T12:58:37.472Z,84.62
2023-11-30T13:01:04.613Z,84.16
2023-11-30T13:03:31.466Z,85.06
2023-11-30T13:05:58.437Z,84.77
2023-11-30T13:08:25.429Z,84.37
2023-11-30T13:10:52.602Z,83.70
2023-11-30T13:13:25.937Z,84.23
2023-11-30T13:16:00.120Z,83.69
2023-11-30T13:18:27.420Z,83.82
2023-11-30T13:20:54.625Z,84.41
2023-11-30T13:23:21.464Z,84.00
2023-11-30T13:25:48.312Z,84.37
2023-11-30T13:28:15.039Z,84.85
2023-11-30T13:30:42.040Z,85.15
2023-11-30T13:33:09.160Z,85.04
2023-11-30T13:35:36.000Z,85.31
2023-11-30T13:38:03.097Z,85.75
2023-11-30T13:40:31.982Z,85.92
2023-11-30T13:42:59.356Z,86.53
2023-11-30T13:45:26.752Z,86.80
2023-11-30T13:47:53.732Z,86.68
2023-11-30T13:50:30.499Z,86.90
2023-11-30T13:53:03.759Z,86.98
2023-11-30T13:55:31.318Z,87.21
2023-11-30T13:57:58.204Z,87.13
2023-11-30T14:00:25.540Z,87.36
2023-11-30T14:02:53.367Z,87.00
2023-11-30T14:05:20.322Z,87.37
2023-11-30T14:07:48.035Z,87.13
2023-11-30T14:10:15.622Z,87.25
2023-11-30T14:12:43.942Z,87.16
2023-11-30T14:15:12.640Z,87.18
2023-11-30T14:17:40.309Z,87.19
2023-11-30T14:20:08.788Z,87.35
2023-11-30T14:22:35.982Z,87.01
2023-11-30T14:25:05.041Z,87.33
2023-11-30T14:27:31.925Z,87.22
2023-11-30T14:29:58.961Z,87.26
2023-11-30T14:32:25.839Z,87.66
2023-11-30T14:34:52.642Z,87.87
2023-11-30T14:37:20.696Z,88.16
2023-11-30T14:39:48.104Z,88.29
2023-11-30T14:42:15.011Z,88.35
2023-11-30T14:44:42.320Z,88.61
2023-11-30T14:47:11.164Z,88.57
2023-11-30T14:49:39.205Z,88.61
2023-11-30T14:52:09.580Z,88.85
2023-11-30T14:54:39.021Z,89.03
2023-11-30T14:57:10.391Z,88.99
2023-11-30T14:59:38.304Z,88.73
2023-11-30T15:02:08.876Z,89.00
2023-11-30T15:04:36.954Z,88.72
2023-11-30T15:07:04.719Z,88.85
2023-11-30T15:09:31.528Z,89.12
2023-11-30T15:11:58.320Z,89.08
2023-11-30T15:14:25.167Z,89.11
2023-11-30T15:16:51.982Z,89.25
2023-11-30T15:19:19.364Z,89.39
2023-11-30T15:21:46.288Z,89.71
2023-11-30T15:24:13.107Z,89.89
2023-11-30T15:26:39.955Z,89.85
2023-11-30T15:29:06.804Z,89.97
2023-11-30T15:31:33.623Z,90.28
2023-11-30T15:34:00.874Z,90.26
2023-11-30T15:36:28.034Z,90.52
2023-11-30T15:38:55.010Z,90.33
2023-11-30T15:41:21.761Z,90.44
2023-11-30T15:43:48.563Z,90.85
2023-11-30T15:46:17.660Z,90.89
2023-11-30T15:48:44.685Z,91.02
2023-11-30T15:51:12.727Z,91.25
2023-11-30T15:53:40.903Z,91.42
2023-11-30T15:56:09.186Z,91.25
2023-11-30T15:58:38.390Z,91.51
2023-11-30T16:01:05.732Z,91.61
2023-11-30T16:03:32.625Z,91.71
2023-11-30T16:06:01.002Z,91.82
2023-11-30T16:08:31.300Z,91.95
2023-11-30T16:10:58.044Z,92.14
2023-11-30T16:13:25.560Z,92.14
2023-11-30T16:15:52.925Z,92.21
2023-11-30T16:18:19.793Z,92.39
2023-11-30T16:20:46.845Z,92.32
2023-11-30T16:23:13.678Z,92.31
2023-11-30T16:25:40.580Z,92.10
2023-11-30T16:28:07.745Z,92.32
2023-11-30T16:30:34.661Z,92.14
2023-11-30T16:33:01.656Z,92.23
2023-11-30T16:35:28.602Z,92.28
2023-11-30T16:37:55.438Z,92.29
2023-11-30T16:40:22.303Z,92.17
2023-11-30T16:42:49.238Z,92.04
2023-11-30T16:45:16.181Z,91.96
2023-11-30T16:47:42.941Z,91.86
2023-11-30T16:50:14.906Z,91.96
2023-11-30T16:52:43.444Z,91.86
2023-11-30T16:55:11.234Z,91.76
2023-11-30T16:57:37.960Z,91.68
2023-11-30T17:00:05.420Z,91.86
2023-11-30T17:02:32.634Z,91.87
2023-11-30T17:04:59.617Z,91.61
2023-11-30T17:07:26.472Z,91.77
2023-11-30T17:09:53.357Z,91.89
2023-11-30T17:12:20.264Z,91.97
2023-11-30T17:14:47.496Z,91.94
2023-11-30T17:17:14.246Z,91.78
2023-11-30T17:19:41.072Z,91.81
2023-11-30T17:22:08.071Z,92.30
2023-11-30T17:24:34.879Z,92.74
2023-11-30T17:27:01.749Z,92.70
2023-11-30T17:29:28.579Z,92.90
2023-11-30T17:31:55.352Z,92.99
2023-11-30T17:34:22.394Z,93.52
2023-11-30T17:36:49.372Z,93.59
2023-11-30T17:39:17.970Z,93.88
2023-11-30T17:41:45.824Z,94.06
2023-11-30T17:44:12.724Z,93.98
2023-11-30T17:46:42.985Z,94.17
2023-11-30T17:49:10.064Z,94.21
2023-11-30T17:51:36.932Z,94.35
2023-11-30T17:54:03.825Z,94.55
2023-11-30T17:56:30.585Z,94.56
2023-11-30T17:58:57.536Z,94.47
2023-11-30T18:01:24.264Z,94.54
2023-11-30T18:03:51.102Z,94.76
2023-11-30T18:06:18.031Z,94.98
2023-11-30T18:08:45.080Z,94.95
2023-11-30T18:11:11.982Z,94.87
2023-11-30T18:13:39.195Z,94.98
2023-11-30T18:16:06.800Z,94.89
2023-11-30T18:18:33.826Z,94.74
2023-11-30T18:21:00.721Z,94.50
2023-11-30T18:23:27.573Z,94.94
2023-11-30T18:25:54.365Z,94.62
2023-11-30T18:28:21.221Z,94.34
2023-11-30T18:30:48.052Z,94.50
2023-11-30T18:33:15.488Z,94.33
2023-11-30T18:35:42.420Z,94.02
2023-11-30T18:38:09.270Z,93.60
2023-11-30T18:40:45.309Z,93.44
2023-11-30T18:43:17.118Z,93.45
2023-11-30T18:45:44.240Z,93.65
2023-11-30T18:48:11.190Z,93.51
2023-11-30T18:50:38.023Z,93.33
2023-11-30T18:53:04.850Z,93.25
2023-11-30T18:58:45.467Z,93.19
2023-11-30T19:01:16.617Z,93.54
2023-11-30T19:03:43.596Z,93.43
2023-11-30T19:06:16.649Z,93.20
2023-11-30T19:08:44.296Z,93.17
2023-11-30T19:11:14.308Z,93.15
2023-11-30T19:13:41.514Z,93.23
2023-11-30T19:16:11.600Z,93.30
2023-11-30T19:18:38.531Z,93.08
2023-11-30T19:21:05.777Z,93.20
2023-11-30T19:23:32.937Z,93.04
2023-11-30T19:26:00.863Z,93.13
2023-11-30T19:28:27.850Z,93.31
2023-11-30T19:30:54.744Z,93.35
2023-11-30T19:33:21.682Z,93.47
2023-11-30T19:35:51.344Z,93.73
2023-11-30T19:38:19.441Z,94.26
2023-11-30T19:40:49.643Z,94.33
2023-11-30T19:43:17.351Z,94.31
2023-11-30T19:45:44.539Z,94.14
2023-11-30T19:48:11.401Z,93.89
2023-11-30T19:50:40.652Z,94.07
2023-11-30T19:53:07.419Z,94.24
2023-11-30T19:55:34.334Z,94.49
2023-11-30T19:58:01.220Z,94.29
2023-11-30T20:00:28.035Z,94.19
2023-11-30T20:02:54.866Z,94.27
2023-11-30T20:05:23.240Z,94.13
2023-11-30T20:07:49.990Z,94.20
2023-11-30T20:10:17.242Z,94.30
2023-11-30T20:12:45.734Z,94.29
2023-11-30T20:15:12.521Z,94.47
2023-11-30T20:17:40.808Z,94.26
2023-11-30T20:20:08.273Z,94.40
2023-11-30T20:22:37.637Z,94.38
2023-11-30T20:25:08.313Z,94.39
2023-11-30T20:27:35.287Z,94.47
2023-11-30T20:30:02.214Z,94.59
2023-11-30T20:32:29.174Z,94.58
2023-11-30T20:34:56.401Z,94.62
2023-11-30T20:37:23.360Z,94.77
2023-11-30T20:39:50.231Z,94.85
2023-11-30T20:42:17.423Z,95.01
2023-11-30T20:44:44.191Z,95.25
2023-11-30T20:47:11.084Z,95.43
2023-11-30T20:49:38.058Z,95.64
2023-11-30T20:52:05.298Z,95.81
2023-11-30T20:54:36.884Z,96.00
2023-11-30T20:57:04.031Z,96.19
2023-11-30T20:59:31.836Z,96.45
2023-11-30T21:02:03.099Z,96.69
2023-11-30T21:04:32.837Z,97.01
2023-11-30T21:07:02.546Z,97.24
2023-11-30T21:09:29.933Z,97.25
2023-11-30T21:11:57.198Z,97.32
2023-11-30T21:14:24.355Z,97.43
2023-11-30T21:16:51.728Z,97.55
2023-11-30T21:19:20.745Z,97.62
2023-11-30T21:21:48.442Z,97.74
2023-11-30T21:24:15.534Z,97.78
2023-11-30T21:26:42.365Z,97.77
2023-11-30T21:29:09.149Z,97.80
2023-11-30T21:31:36.060Z,97.85
2023-11-30T21:34:02.934Z,97.91
2023-11-30T21:36:29.739Z,98.00
2023-11-30T21:38:56.504Z,98.14
2023-11-30T21:41:23.678Z,98.13
2023-11-30T21:43:50.520Z,98.09
2023-11-30T21:46:18.033Z,98.10
2023-11-30T21:48:45.075Z,98.17
2023-11-30T21:51:12.261Z,98.21
2023-11-30T21:53:39.095Z,98.26
2023-11-30T21:56:06.919Z,98.26
2023-11-30T21:58:34.385Z,98.33
2023-11-30T22:01:01.273Z,98.28
2023-11-30T22:03:28.280Z,98.34
2023-11-30T22:05:55.078Z,98.34
2023-11-30T22:08:21.824Z,98.32
2023-11-30T22:10:48.780Z,98.22
2023-11-30T22:13:15.636Z,98.14
2023-11-30T22:15:42.444Z,98.08
2023-11-30T22:18:09.251Z,98.08
2023-11-30T22:20:35.948Z,98.08
2023-11-30T22:23:02.787Z,98.17
2023-11-30T22:25:29.767Z,98.26
2023-11-30T22:27:56.585Z,98.27
2023-11-30T22:30:23.327Z,98.21
2023-11-30T22:32:50.235Z,98.21
2023-11-30T22:35:17.112Z,98.10
2023-11-30T22:37:43.872Z,98.00
2023-11-30T22:40:11.080Z,97.97
2023-11-30T22:42:37.867Z,97.74
2023-11-30T22:45:06.354Z,97.68
2023-11-30T22:47:34.658Z,97.40
2023-11-30T22:50:01.414Z,97.39
2023-11-30T22:52:28.412Z,97.47
2023-11-30T22:54:55.446Z,97.36
2023-11-30T22:57:22.374Z,97.43
2023-11-30T22:59:49.443Z,97.43
2023-11-30T23:02:16.356Z,97.12
2023-11-30T23:04:43.498Z,96.83
2023-11-30T23:07:10.557Z,97.06
2023-11-30T23:09:38.205Z,97.16
2023-11-30T23:12:05.518Z,97.28
2023-11-30T23:14:32.369Z,97.19
2023-11-30T23:16:59.169Z,96.93
2023-11-30T23:19:28.801Z,96.85
2023-11-30T23:21:55.522Z,96.68
2023-11-30T23:24:26.093Z,96.61
2023-11-30T23:26:58.141Z,96.41
2023-11-30T23:29:24.926Z,96.35
2023-11-30T23:31:51.752Z,96.39
2023-11-30T23:34:18.568Z,96.25
2023-11-30T23:36:45.346Z,96.37
2023-11-30T23:39:12.155Z,96.25
2023-11-30T23:41:39.040Z,96.26
2023-11-30T23:44:07.110Z,96.19
2023-11-30T23:46:33.984Z,95.80
2023-11-30T23:49:00.776Z,95.68
2023-11-30T23:51:27.767Z,95.41
2023-11-30T23:53:54.660Z,95.37
2023-11-30T23:56:21.472Z,95.30
2023-11-30T23:58:48.232Z,95.45
